sensor_id;sensor_type;location;lat;lon;timestamp;temperature;humidity
4050;DHT22;2039;50.894;6.888;2023-12-20T00:01:22;8.20;99.90
4050;DHT22;2039;50.894;6.888;2023-12-20T00:03:48;8.20;99.90
4050;DHT22;2039;50.894;6.888;2023-12-20T00:06:14;8.20;99.90
4050;DHT22;2039;50.894;6.888;2023-12-20T00:08:39;8.20;99.90
4050;DHT22;2039;50.894;6.888;2023-12-20T00:11:05;8.20;99.90
4050;DHT22;2039;50.894;6.888;2023-12-20T00:13:31;8.20;99.90
4050;DHT22;2039;50.894;6.888;2023-12-20T00:15:56;8.30;99.90
4050;DHT22;2039;50.894;6.888;2023-12-20T00:18:22;8.20;99.90
4050;DHT22;2039;50.894;6.888;2023-12-20T00:20:48;8.30;99.90
4050;DHT22;2039;50.894;6.888;2023-12-20T00:23:14;8.20;99.90
4050;DHT22;2039;50.894;6.888;2023-12-20T00:25:39;8.30;99.90
4050;DHT22;2039;50.894;6.888;2023-12-20T00:28:05;8.20;99.90
4050;DHT22;2039;50.894;6.888;2023-12-20T00:30:31;8.20;99.90
4050;DHT22;2039;50.894;6.888;2023-12-20T00:32:56;8.20;99.90
4050;DHT22;2039;50.894;6.888;2023-12-20T00:35:22;8.20;99.90
4050;DHT22;2039;50.894;6.888;2023-12-20T00:37:48;8.20;99.90
4050;DHT22;2039;50.894;6.888;2023-12-20T00:40:13;8.30;99.90
4050;DHT22;2039;50.894;6.888;2023-12-20T00:42:39;8.30;99.90
4050;DHT22;2039;50.894;6.888;2023-12-20T00:45:05;8.30;99.90
4050;DHT22;2039;50.894;6.888;2023-12-20T00:47:31;8.30;99.90
4050;DHT22;2039;50.894;6.888;2023-12-20T00:49:57;8.30;99.90
4050;DHT22;2039;50.894;6.888;2023-12-20T00:52:24;8.20;99.90
4050;DHT22;2039;50.894;6.888;2023-12-20T00:54:50;8.20;99.90
4050;DHT22;2039;50.894;6.888;2023-12-20T00:57:16;8.20;99.90
4050;DHT22;2039;50.894;6.888;2023-12-20T00:59:42;8.30;99.90
4050;DHT22;2039;50.894;6.888;2023-12-20T01:02:10;8.30;99.90
4050;DHT22;2039;50.894;6.888;2023-12-20T01:04:36;8.20;99.90
4050;DHT22;2039;50.894;6.888;2023-12-20T01:07:02;8.20;99.90
4050;DHT22;2039;50.894;6.888;2023-12-20T01:09:27;8.20;99.90
4050;DHT22;2039;50.894;6.888;2023-12-20T01:11:53;8.20;99.90
4050;DHT22;2039;50.894;6.888;2023-12-20T01:14:19;8.10;99.90
4050;DHT22;2039;50.894;6.888;2023-12-20T01:16:45;8.20;99.90
4050;DHT22;2039;50.894;6.888;2023-12-20T01:19:10;8.10;99.90
4050;DHT22;2039;50.894;6.888;2023-12-20T01:21:36;8.10;99.90
4050;DHT22;2039;50.894;6.888;2023-12-20T01:24:02;8.00;99.90
4050;DHT22;2039;50.894;6.888;2023-12-20T01:26:28;8.00;99.90
4050;DHT22;2039;50.894;6.888;2023-12-20T01:28:53;8.00;99.90
4050;DHT22;2039;50.894;6.888;2023-12-20T01:31:19;8.00;99.90
4050;DHT22;2039;50.894;6.888;2023-12-20T01:33:45;8.00;99.90
4050;DHT22;2039;50.894;6.888;2023-12-20T01:36:11;8.00;99.90
4050;DHT22;2039;50.894;6.888;2023-12-20T01:38:37;8.00;99.90
4050;DHT22;2039;50.894;6.888;2023-12-20T01:41:03;7.90;99.90
4050;DHT22;2039;50.894;6.888;2023-12-20T01:43:29;8.00;99.90
4050;DHT22;2039;50.894;6.888;2023-12-20T01:45:56;7.90;99.90
4050;DHT22;2039;50.894;6.888;2023-12-20T01:48:23;8.00;99.90
4050;DHT22;2039;50.894;6.888;2023-12-20T01:50:50;7.90;99.90
4050;DHT22;2039;50.894;6.888;2023-12-20T01:53:16;7.90;99.90
4050;DHT22;2039;50.894;6.888;2023-12-20T01:55:42;7.80;99.90
4050;DHT22;2039;50.894;6.888;2023-12-20T01:58:09;7.80;99.90
4050;DHT22;2039;50.894;6.888;2023-12-20T02:00:36;7.70;99.90
4050;DHT22;2039;50.894;6.888;2023-12-20T02:03:03;7.70;99.90
4050;DHT22;2039;50.894;6.888;2023-12-20T02:05:34;7.60;99.90
4050;DHT22;2039;50.894;6.888;2023-12-20T02:08:00;7.50;99.90
4050;DHT22;2039;50.894;6.888;2023-12-20T02:10:26;7.50;99.90
4050;DHT22;2039;50.894;6.888;2023-12-20T02:12:52;7.50;99.90
4050;DHT22;2039;50.894;6.888;2023-12-20T02:15:17;7.50;99.90
4050;DHT22;2039;50.894;6.888;2023-12-20T02:17:44;7.50;99.90
4050;DHT22;2039;50.894;6.888;2023-12-20T02:20:10;7.40;99.90
4050;DHT22;2039;50.894;6.888;2023-12-20T02:22:39;7.30;99.90
4050;DHT22;2039;50.894;6.888;2023-12-20T02:25:05;7.20;99.90
4050;DHT22;2039;50.894;6.888;2023-12-20T02:27:30;7.20;99.90
4050;DHT22;2039;50.894;6.888;2023-12-20T02:29:56;7.20;99.90
4050;DHT22;2039;50.894;6.888;2023-12-20T02:32:24;7.10;99.90
4050;DHT22;2039;50.894;6.888;2023-12-20T02:34:53;7.10;99.90
4050;DHT22;2039;50.894;6.888;2023-12-20T02:37:19;7.10;99.90
4050;DHT22;2039;50.894;6.888;2023-12-20T02:39:44;7.00;99.90
4050;DHT22;2039;50.894;6.888;2023-12-20T02:42:10;7.10;99.90
4050;DHT22;2039;50.894;6.888;2023-12-20T02:44:36;7.00;99.90
4050;DHT22;2039;50.894;6.888;2023-12-20T02:47:02;7.00;99.90
4050;DHT22;2039;50.894;6.888;2023-12-20T02:49:28;7.00;99.90
4050;DHT22;2039;50.894;6.888;2023-12-20T02:51:54;6.90;99.90
4050;DHT22;2039;50.894;6.888;2023-12-20T02:54:19;7.00;99.90
4050;DHT22;2039;50.894;6.888;2023-12-20T02:56:45;7.00;99.90
4050;DHT22;2039;50.894;6.888;2023-12-20T02:59:11;7.00;99.90
4050;DHT22;2039;50.894;6.888;2023-12-20T03:01:45;7.00;99.90
4050;DHT22;2039;50.894;6.888;2023-12-20T03:04:12;7.00;99.90
4050;DHT22;2039;50.894;6.888;2023-12-20T03:06:38;7.00;99.90
4050;DHT22;2039;50.894;6.888;2023-12-20T03:09:04;7.00;99.90
4050;DHT22;2039;50.894;6.888;2023-12-20T03:11:30;7.00;99.90
4050;DHT22;2039;50.894;6.888;2023-12-20T03:13:56;7.10;99.90
4050;DHT22;2039;50.894;6.888;2023-12-20T03:16:22;7.10;99.90
4050;DHT22;2039;50.894;6.888;2023-12-20T03:18:48;7.10;99.90
4050;DHT22;2039;50.894;6.888;2023-12-20T03:21:14;7.10;99.90
4050;DHT22;2039;50.894;6.888;2023-12-20T03:23:40;7.10;99.90
4050;DHT22;2039;50.894;6.888;2023-12-20T03:26:12;7.10;99.90
4050;DHT22;2039;50.894;6.888;2023-12-20T03:28:37;7.10;99.90
4050;DHT22;2039;50.894;6.888;2023-12-20T03:31:03;7.10;99.90
4050;DHT22;2039;50.894;6.888;2023-12-20T03:33:29;7.10;99.90
4050;DHT22;2039;50.894;6.888;2023-12-20T03:35:55;7.10;99.90
4050;DHT22;2039;50.894;6.888;2023-12-20T03:38:21;7.10;99.90
4050;DHT22;2039;50.894;6.888;2023-12-20T03:40:47;7.20;99.90
4050;DHT22;2039;50.894;6.888;2023-12-20T03:43:13;7.20;99.90
4050;DHT22;2039;50.894;6.888;2023-12-20T03:45:38;7.20;99.90
4050;DHT22;2039;50.894;6.888;2023-12-20T03:48:04;7.10;99.90
4050;DHT22;2039;50.894;6.888;2023-12-20T03:50:30;7.10;99.90
4050;DHT22;2039;50.894;6.888;2023-12-20T03:52:56;7.10;99.90
4050;DHT22;2039;50.894;6.888;2023-12-20T03:55:22;7.10;99.90
4050;DHT22;2039;50.894;6.888;2023-12-20T03:57:47;7.10;99.90
4050;DHT22;2039;50.894;6.888;2023-12-20T04:00:13;7.10;99.90
4050;DHT22;2039;50.894;6.888;2023-12-20T04:02:40;7.10;99.90
4050;DHT22;2039;50.894;6.888;2023-12-20T04:05:07;7.10;99.90
4050;DHT22;2039;50.894;6.888;2023-12-20T04:07:33;7.10;99.90
4050;DHT22;2039;50.894;6.888;2023-12-20T04:09:59;7.10;99.90
4050;DHT22;2039;50.894;6.888;2023-12-20T04:12:25;7.00;99.90
4050;DHT22;2039;50.894;6.888;2023-12-20T04:14:51;7.10;99.90
4050;DHT22;2039;50.894;6.888;2023-12-20T04:17:17;7.00;99.90
4050;DHT22;2039;50.894;6.888;2023-12-20T04:19:43;7.00;99.90
4050;DHT22;2039;50.894;6.888;2023-12-20T04:22:09;7.00;99.90
4050;DHT22;2039;50.894;6.888;2023-12-20T04:24:35;7.00;99.90
4050;DHT22;2039;50.894;6.888;2023-12-20T04:27:01;7.00;99.90
4050;DHT22;2039;50.894;6.888;2023-12-20T04:29:27;7.00;99.90
4050;DHT22;2039;50.894;6.888;2023-12-20T04:31:53;7.00;99.90
4050;DHT22;2039;50.894;6.888;2023-12-20T04:34:18;7.00;99.90
4050;DHT22;2039;50.894;6.888;2023-12-20T04:36:44;7.00;99.90
4050;DHT22;2039;50.894;6.888;2023-12-20T04:39:12;6.90;99.90
4050;DHT22;2039;50.894;6.888;2023-12-20T04:41:38;7.00;99.90
4050;DHT22;2039;50.894;6.888;2023-12-20T04:44:03;7.00;99.90
4050;DHT22;2039;50.894;6.888;2023-12-20T04:46:29;6.90;99.90
4050;DHT22;2039;50.894;6.888;2023-12-20T04:48:55;6.90;99.90
4050;DHT22;2039;50.894;6.888;2023-12-20T04:51:20;6.90;99.90
4050;DHT22;2039;50.894;6.888;2023-12-20T04:53:46;6.90;99.90
4050;DHT22;2039;50.894;6.888;2023-12-20T04:56:12;6.90;99.90
4050;DHT22;2039;50.894;6.888;2023-12-20T04:58:37;6.80;99.90
4050;DHT22;2039;50.894;6.888;2023-12-20T05:01:06;6.80;99.90
4050;DHT22;2039;50.894;6.888;2023-12-20T05:03:31;6.80;99.90
4050;DHT22;2039;50.894;6.888;2023-12-20T05:05:57;6.80;99.90
4050;DHT22;2039;50.894;6.888;2023-12-20T05:08:23;6.80;99.90
4050;DHT22;2039;50.894;6.888;2023-12-20T05:10:51;6.80;99.90
4050;DHT22;2039;50.894;6.888;2023-12-20T05:13:17;6.70;99.90
4050;DHT22;2039;50.894;6.888;2023-12-20T05:15:42;6.70;99.90
4050;DHT22;2039;50.894;6.888;2023-12-20T05:18:08;6.70;99.90
4050;DHT22;2039;50.894;6.888;2023-12-20T05:20:34;6.70;99.90
4050;DHT22;2039;50.894;6.888;2023-12-20T05:22:59;6.70;99.90
4050;DHT22;2039;50.894;6.888;2023-12-20T05:25:25;6.70;99.90
4050;DHT22;2039;50.894;6.888;2023-12-20T05:27:51;6.70;99.90
4050;DHT22;2039;50.894;6.888;2023-12-20T05:30:16;6.70;99.90
4050;DHT22;2039;50.894;6.888;2023-12-20T05:32:42;6.70;99.90
4050;DHT22;2039;50.894;6.888;2023-12-20T05:35:08;6.70;99.90
4050;DHT22;2039;50.894;6.888;2023-12-20T05:37:33;6.70;99.90
4050;DHT22;2039;50.894;6.888;2023-12-20T05:39:59;6.60;99.90
4050;DHT22;2039;50.894;6.888;2023-12-20T05:42:24;6.70;99.90
4050;DHT22;2039;50.894;6.888;2023-12-20T05:44:50;6.70;99.90
4050;DHT22;2039;50.894;6.888;2023-12-20T05:47:16;6.60;99.90
4050;DHT22;2039;50.894;6.888;2023-12-20T05:49:43;6.60;99.90
4050;DHT22;2039;50.894;6.888;2023-12-20T05:52:09;6.70;99.90
4050;DHT22;2039;50.894;6.888;2023-12-20T05:54:34;6.70;99.90
4050;DHT22;2039;50.894;6.888;2023-12-20T05:57:00;6.70;99.90
4050;DHT22;2039;50.894;6.888;2023-12-20T05:59:26;6.70;99.90
4050;DHT22;2039;50.894;6.888;2023-12-20T06:01:55;6.70;99.90
4050;DHT22;2039;50.894;6.888;2023-12-20T06:04:20;6.70;99.90
4050;DHT22;2039;50.894;6.888;2023-12-20T06:06:49;6.70;99.90
4050;DHT22;2039;50.894;6.888;2023-12-20T06:09:15;6.80;99.90
4050;DHT22;2039;50.894;6.888;2023-12-20T06:11:41;6.80;99.90
4050;DHT22;2039;50.894;6.888;2023-12-20T06:14:06;6.70;99.90
4050;DHT22;2039;50.894;6.888;2023-12-20T06:16:32;6.80;99.90
4050;DHT22;2039;50.894;6.888;2023-12-20T06:18:58;6.80;99.90
4050;DHT22;2039;50.894;6.888;2023-12-20T06:21:23;6.70;99.90
4050;DHT22;2039;50.894;6.888;2023-12-20T06:23:49;6.80;99.90
4050;DHT22;2039;50.894;6.888;2023-12-20T06:26:15;6.80;99.90
4050;DHT22;2039;50.894;6.888;2023-12-20T06:28:41;6.80;99.90
4050;DHT22;2039;50.894;6.888;2023-12-20T06:31:06;6.80;99.90
4050;DHT22;2039;50.894;6.888;2023-12-20T06:33:32;6.80;99.90
4050;DHT22;2039;50.894;6.888;2023-12-20T06:35:57;6.80;99.90
4050;DHT22;2039;50.894;6.888;2023-12-20T06:38:23;6.80;99.90
4050;DHT22;2039;50.894;6.888;2023-12-20T06:40:49;6.80;99.90
4050;DHT22;2039;50.894;6.888;2023-12-20T06:43:14;6.80;99.90
4050;DHT22;2039;50.894;6.888;2023-12-20T06:45:40;6.80;99.90
4050;DHT22;2039;50.894;6.888;2023-12-20T06:48:06;6.80;99.90
4050;DHT22;2039;50.894;6.888;2023-12-20T06:50:32;6.90;99.90
4050;DHT22;2039;50.894;6.888;2023-12-20T06:52:57;6.80;99.90
4050;DHT22;2039;50.894;6.888;2023-12-20T06:55:23;6.90;99.90
4050;DHT22;2039;50.894;6.888;2023-12-20T06:57:49;6.90;99.90
4050;DHT22;2039;50.894;6.888;2023-12-20T07:00:15;6.90;99.90
4050;DHT22;2039;50.894;6.888;2023-12-20T07:02:40;6.90;99.90
4050;DHT22;2039;50.894;6.888;2023-12-20T07:05:06;6.90;99.90
4050;DHT22;2039;50.894;6.888;2023-12-20T07:07:32;6.90;99.90
4050;DHT22;2039;50.894;6.888;2023-12-20T07:09:58;6.90;99.90
4050;DHT22;2039;50.894;6.888;2023-12-20T07:12:23;6.90;99.90
4050;DHT22;2039;50.894;6.888;2023-12-20T07:14:49;6.90;99.90
4050;DHT22;2039;50.894;6.888;2023-12-20T07:17:15;6.90;99.90
4050;DHT22;2039;50.894;6.888;2023-12-20T07:19:41;6.90;99.90
4050;DHT22;2039;50.894;6.888;2023-12-20T07:22:07;6.90;99.90
4050;DHT22;2039;50.894;6.888;2023-12-20T07:24:33;6.90;99.90
4050;DHT22;2039;50.894;6.888;2023-12-20T07:27:00;6.90;99.90
4050;DHT22;2039;50.894;6.888;2023-12-20T07:29:26;6.90;99.90
4050;DHT22;2039;50.894;6.888;2023-12-20T07:31:52;6.90;99.90
4050;DHT22;2039;50.894;6.888;2023-12-20T07:34:22;6.90;99.90
4050;DHT22;2039;50.894;6.888;2023-12-20T07:36:47;7.00;99.90
4050;DHT22;2039;50.894;6.888;2023-12-20T07:39:14;6.90;99.90
4050;DHT22;2039;50.894;6.888;2023-12-20T07:41:40;6.90;99.90
4050;DHT22;2039;50.894;6.888;2023-12-20T07:44:06;6.90;99.90
4050;DHT22;2039;50.894;6.888;2023-12-20T07:46:32;6.90;99.90
4050;DHT22;2039;50.894;6.888;2023-12-20T07:48:58;7.00;99.90
4050;DHT22;2039;50.894;6.888;2023-12-20T07:51:23;7.00;99.90
4050;DHT22;2039;50.894;6.888;2023-12-20T07:53:49;7.00;99.90
4050;DHT22;2039;50.894;6.888;2023-12-20T07:56:19;7.00;99.90
4050;DHT22;2039;50.894;6.888;2023-12-20T07:58:45;7.00;99.90
4050;DHT22;2039;50.894;6.888;2023-12-20T08:01:16;7.00;99.90
4050;DHT22;2039;50.894;6.888;2023-12-20T08:03:42;7.00;99.90
4050;DHT22;2039;50.894;6.888;2023-12-20T08:06:10;7.10;99.90
4050;DHT22;2039;50.894;6.888;2023-12-20T08:08:36;7.00;99.90
4050;DHT22;2039;50.894;6.888;2023-12-20T08:11:01;7.00;99.90
4050;DHT22;2039;50.894;6.888;2023-12-20T08:13:28;7.00;99.90
4050;DHT22;2039;50.894;6.888;2023-12-20T08:15:56;7.00;99.90
4050;DHT22;2039;50.894;6.888;2023-12-20T08:18:21;7.00;99.90
4050;DHT22;2039;50.894;6.888;2023-12-20T08:20:48;7.00;99.90
4050;DHT22;2039;50.894;6.888;2023-12-20T08:23:14;7.00;99.90
4050;DHT22;2039;50.894;6.888;2023-12-20T08:25:40;7.00;99.90
4050;DHT22;2039;50.894;6.888;2023-12-20T08:28:06;6.90;99.90
4050;DHT22;2039;50.894;6.888;2023-12-20T08:30:31;6.90;99.90
4050;DHT22;2039;50.894;6.888;2023-12-20T08:33:00;6.90;99.90
4050;DHT22;2039;50.894;6.888;2023-12-20T08:35:26;6.90;99.90
4050;DHT22;2039;50.894;6.888;2023-12-20T08:37:52;6.90;99.90
4050;DHT22;2039;50.894;6.888;2023-12-20T08:40:18;6.90;99.90
4050;DHT22;2039;50.894;6.888;2023-12-20T08:42:44;7.00;99.90
4050;DHT22;2039;50.894;6.888;2023-12-20T08:45:10;7.00;99.90
4050;DHT22;2039;50.894;6.888;2023-12-20T08:47:35;7.10;99.90
4050;DHT22;2039;50.894;6.888;2023-12-20T08:50:05;7.10;99.90
4050;DHT22;2039;50.894;6.888;2023-12-20T08:52:34;7.10;99.90
4050;DHT22;2039;50.894;6.888;2023-12-20T08:55:02;7.10;99.90
4050;DHT22;2039;50.894;6.888;2023-12-20T08:57:28;7.20;99.90
4050;DHT22;2039;50.894;6.888;2023-12-20T08:59:54;7.20;99.90
4050;DHT22;2039;50.894;6.888;2023-12-20T09:02:19;7.30;99.90
4050;DHT22;2039;50.894;6.888;2023-12-20T09:04:52;7.30;99.90
4050;DHT22;2039;50.894;6.888;2023-12-20T09:07:22;7.40;99.90
4050;DHT22;2039;50.894;6.888;2023-12-20T09:09:48;7.40;99.90
4050;DHT22;2039;50.894;6.888;2023-12-20T09:12:13;7.40;99.90
4050;DHT22;2039;50.894;6.888;2023-12-20T09:14:39;7.40;99.90
4050;DHT22;2039;50.894;6.888;2023-12-20T09:17:05;7.40;99.90
4050;DHT22;2039;50.894;6.888;2023-12-20T09:19:33;7.50;99.90
4050;DHT22;2039;50.894;6.888;2023-12-20T09:21:59;7.50;99.90
4050;DHT22;2039;50.894;6.888;2023-12-20T09:24:24;7.50;99.90
4050;DHT22;2039;50.894;6.888;2023-12-20T09:26:50;7.40;99.90
4050;DHT22;2039;50.894;6.888;2023-12-20T09:29:16;7.40;99.90
4050;DHT22;2039;50.894;6.888;2023-12-20T09:31:42;7.40;99.90
4050;DHT22;2039;50.894;6.888;2023-12-20T09:34:10;7.40;99.90
4050;DHT22;2039;50.894;6.888;2023-12-20T09:36:35;7.40;99.90
4050;DHT22;2039;50.894;6.888;2023-12-20T09:39:02;7.40;99.90
4050;DHT22;2039;50.894;6.888;2023-12-20T09:41:34;7.40;99.90
4050;DHT22;2039;50.894;6.888;2023-12-20T09:44:02;7.40;99.90
4050;DHT22;2039;50.894;6.888;2023-12-20T09:46:29;7.40;99.90
4050;DHT22;2039;50.894;6.888;2023-12-20T09:49:00;7.40;99.90
4050;DHT22;2039;50.894;6.888;2023-12-20T09:51:27;7.50;99.90
4050;DHT22;2039;50.894;6.888;2023-12-20T09:53:55;7.50;99.90
4050;DHT22;2039;50.894;6.888;2023-12-20T09:56:22;7.50;99.90
4050;DHT22;2039;50.894;6.888;2023-12-20T09:58:48;7.50;99.90
4050;DHT22;2039;50.894;6.888;2023-12-20T10:01:16;7.50;99.90
4050;DHT22;2039;50.894;6.888;2023-12-20T10:03:42;7.50;99.90
4050;DHT22;2039;50.894;6.888;2023-12-20T10:06:08;7.60;99.90
4050;DHT22;2039;50.894;6.888;2023-12-20T10:08:34;7.60;99.90
4050;DHT22;2039;50.894;6.888;2023-12-20T10:11:01;7.60;99.90
4050;DHT22;2039;50.894;6.888;2023-12-20T10:13:31;7.60;99.90
4050;DHT22;2039;50.894;6.888;2023-12-20T10:15:59;7.60;99.90
4050;DHT22;2039;50.894;6.888;2023-12-20T10:18:29;7.70;99.90
4050;DHT22;2039;50.894;6.888;2023-12-20T10:20:55;7.70;99.90
4050;DHT22;2039;50.894;6.888;2023-12-20T10:23:24;7.70;99.90
4050;DHT22;2039;50.894;6.888;2023-12-20T10:25:59;7.60;99.90
4050;DHT22;2039;50.894;6.888;2023-12-20T10:28:26;7.70;99.90
4050;DHT22;2039;50.894;6.888;2023-12-20T10:30:53;7.80;99.90
4050;DHT22;2039;50.894;6.888;2023-12-20T10:33:27;7.80;99.90
4050;DHT22;2039;50.894;6.888;2023-12-20T10:35:54;7.80;99.90
4050;DHT22;2039;50.894;6.888;2023-12-20T10:38:21;7.80;99.90
4050;DHT22;2039;50.894;6.888;2023-12-20T10:40:53;7.80;99.90
4050;DHT22;2039;50.894;6.888;2023-12-20T10:43:20;7.80;99.90
4050;DHT22;2039;50.894;6.888;2023-12-20T10:45:46;7.80;99.90
4050;DHT22;2039;50.894;6.888;2023-12-20T10:48:12;7.90;99.90
4050;DHT22;2039;50.894;6.888;2023-12-20T10:50:38;7.80;99.90
4050;DHT22;2039;50.894;6.888;2023-12-20T10:53:06;7.80;99.90
4050;DHT22;2039;50.894;6.888;2023-12-20T10:55:35;7.80;99.90
4050;DHT22;2039;50.894;6.888;2023-12-20T10:58:06;7.80;99.90
4050;DHT22;2039;50.894;6.888;2023-12-20T11:00:35;7.80;99.90
4050;DHT22;2039;50.894;6.888;2023-12-20T11:03:05;7.90;99.90
4050;DHT22;2039;50.894;6.888;2023-12-20T11:05:53;7.90;99.90
4050;DHT22;2039;50.894;6.888;2023-12-20T11:08:33;7.90;99.90
4050;DHT22;2039;50.894;6.888;2023-12-20T11:11:10;7.90;99.90
4050;DHT22;2039;50.894;6.888;2023-12-20T11:13:48;7.90;99.90
4050;DHT22;2039;50.894;6.888;2023-12-20T11:16:19;8.00;99.90
4050;DHT22;2039;50.894;6.888;2023-12-20T11:18:45;7.90;99.90
4050;DHT22;2039;50.894;6.888;2023-12-20T11:21:11;8.00;99.90
4050;DHT22;2039;50.894;6.888;2023-12-20T11:23:37;8.00;99.90
4050;DHT22;2039;50.894;6.888;2023-12-20T11:26:03;8.00;99.90
4050;DHT22;2039;50.894;6.888;2023-12-20T11:28:32;8.10;99.90
4050;DHT22;2039;50.894;6.888;2023-12-20T11:31:00;8.10;99.90
4050;DHT22;2039;50.894;6.888;2023-12-20T11:33:30;8.10;99.90
4050;DHT22;2039;50.894;6.888;2023-12-20T11:35:57;8.00;99.90
4050;DHT22;2039;50.894;6.888;2023-12-20T11:38:59;8.00;99.90
4050;DHT22;2039;50.894;6.888;2023-12-20T11:41:26;8.10;99.90
4050;DHT22;2039;50.894;6.888;2023-12-20T11:43:55;8.00;99.90
4050;DHT22;2039;50.894;6.888;2023-12-20T11:46:22;8.10;99.90
4050;DHT22;2039;50.894;6.888;2023-12-20T11:48:48;8.20;99.90
4050;DHT22;2039;50.894;6.888;2023-12-20T11:51:14;8.20;99.90
4050;DHT22;2039;50.894;6.888;2023-12-20T11:53:40;8.20;99.90
4050;DHT22;2039;50.894;6.888;2023-12-20T11:56:08;8.20;99.90
4050;DHT22;2039;50.894;6.888;2023-12-20T11:58:34;8.10;99.90
4050;DHT22;2039;50.894;6.888;2023-12-20T12:01:00;8.10;99.90
4050;DHT22;2039;50.894;6.888;2023-12-20T12:03:28;8.10;99.90
4050;DHT22;2039;50.894;6.888;2023-12-20T12:05:53;8.00;99.90
4050;DHT22;2039;50.894;6.888;2023-12-20T12:08:19;8.00;99.90
4050;DHT22;2039;50.894;6.888;2023-12-20T12:10:45;8.00;99.90
4050;DHT22;2039;50.894;6.888;2023-12-20T12:13:14;8.00;99.90
4050;DHT22;2039;50.894;6.888;2023-12-20T12:15:40;8.00;99.90
4050;DHT22;2039;50.894;6.888;2023-12-20T12:18:08;8.00;99.90
4050;DHT22;2039;50.894;6.888;2023-12-20T12:20:34;8.00;99.90
4050;DHT22;2039;50.894;6.888;2023-12-20T12:23:04;8.00;99.90
4050;DHT22;2039;50.894;6.888;2023-12-20T12:25:32;8.00;99.90
4050;DHT22;2039;50.894;6.888;2023-12-20T12:27:58;8.00;99.90
4050;DHT22;2039;50.894;6.888;2023-12-20T12:30:25;8.00;99.90
4050;DHT22;2039;50.894;6.888;2023-12-20T12:32:52;8.00;99.90
4050;DHT22;2039;50.894;6.888;2023-12-20T12:35:18;8.00;99.90
4050;DHT22;2039;50.894;6.888;2023-12-20T12:37:44;8.00;99.90
4050;DHT22;2039;50.894;6.888;2023-12-20T12:40:11;8.00;99.90
4050;DHT22;2039;50.894;6.888;2023-12-20T12:42:37;8.10;99.90
4050;DHT22;2039;50.894;6.888;2023-12-20T12:45:04;8.00;99.90
4050;DHT22;2039;50.894;6.888;2023-12-20T12:47:30;8.10;99.90
4050;DHT22;2039;50.894;6.888;2023-12-20T12:49:56;8.10;99.90
4050;DHT22;2039;50.894;6.888;2023-12-20T12:52:22;8.00;99.90
4050;DHT22;2039;50.894;6.888;2023-12-20T12:54:48;8.10;99.90
4050;DHT22;2039;50.894;6.888;2023-12-20T12:57:15;8.10;99.90
4050;DHT22;2039;50.894;6.888;2023-12-20T12:59:44;8.10;99.90
4050;DHT22;2039;50.894;6.888;2023-12-20T13:02:13;8.10;99.90
4050;DHT22;2039;50.894;6.888;2023-12-20T13:04:42;8.10;99.90
4050;DHT22;2039;50.894;6.888;2023-12-20T13:07:09;8.10;99.90
4050;DHT22;2039;50.894;6.888;2023-12-20T13:09:38;8.10;99.90
4050;DHT22;2039;50.894;6.888;2023-12-20T13:12:05;8.10;99.90
4050;DHT22;2039;50.894;6.888;2023-12-20T13:14:35;8.10;99.90
4050;DHT22;2039;50.894;6.888;2023-12-20T13:17:03;8.10;99.90
4050;DHT22;2039;50.894;6.888;2023-12-20T13:19:29;8.10;99.90
4050;DHT22;2039;50.894;6.888;2023-12-20T13:21:59;8.00;99.90
4050;DHT22;2039;50.894;6.888;2023-12-20T13:24:24;8.00;99.90
4050;DHT22;2039;50.894;6.888;2023-12-20T13:26:59;8.00;99.90
4050;DHT22;2039;50.894;6.888;2023-12-20T13:29:25;8.00;99.90
4050;DHT22;2039;50.894;6.888;2023-12-20T13:31:53;8.00;99.90
4050;DHT22;2039;50.894;6.888;2023-12-20T13:34:19;7.90;99.90
4050;DHT22;2039;50.894;6.888;2023-12-20T13:36:45;7.90;99.90
4050;DHT22;2039;50.894;6.888;2023-12-20T13:39:13;8.00;99.90
4050;DHT22;2039;50.894;6.888;2023-12-20T13:41:41;8.10;99.90
4050;DHT22;2039;50.894;6.888;2023-12-20T13:44:07;8.20;99.90
4050;DHT22;2039;50.894;6.888;2023-12-20T13:46:36;8.20;99.90
4050;DHT22;2039;50.894;6.888;2023-12-20T13:49:03;8.20;99.90
4050;DHT22;2039;50.894;6.888;2023-12-20T13:51:30;8.20;99.90
4050;DHT22;2039;50.894;6.888;2023-12-20T13:53:56;8.10;99.90
4050;DHT22;2039;50.894;6.888;2023-12-20T13:56:23;8.10;99.90
4050;DHT22;2039;50.894;6.888;2023-12-20T13:58:49;8.00;99.90
4050;DHT22;2039;50.894;6.888;2023-12-20T14:01:17;8.00;99.90
4050;DHT22;2039;50.894;6.888;2023-12-20T14:03:43;8.00;99.90
4050;DHT22;2039;50.894;6.888;2023-12-20T14:06:08;8.00;99.90
4050;DHT22;2039;50.894;6.888;2023-12-20T14:08:34;8.00;99.90
4050;DHT22;2039;50.894;6.888;2023-12-20T14:11:09;8.00;99.90
4050;DHT22;2039;50.894;6.888;2023-12-20T14:13:36;8.00;99.90
4050;DHT22;2039;50.894;6.888;2023-12-20T14:16:02;8.00;99.90
4050;DHT22;2039;50.894;6.888;2023-12-20T14:18:29;8.00;99.90
4050;DHT22;2039;50.894;6.888;2023-12-20T14:20:55;8.00;99.90
4050;DHT22;2039;50.894;6.888;2023-12-20T14:23:21;8.10;99.90
4050;DHT22;2039;50.894;6.888;2023-12-20T14:25:48;8.00;99.90
4050;DHT22;2039;50.894;6.888;2023-12-20T14:28:15;8.00;99.90
4050;DHT22;2039;50.894;6.888;2023-12-20T14:30:40;8.00;99.90
4050;DHT22;2039;50.894;6.888;2023-12-20T14:33:06;8.10;99.90
4050;DHT22;2039;50.894;6.888;2023-12-20T14:35:32;8.10;99.90
4050;DHT22;2039;50.894;6.888;2023-12-20T14:37:58;8.10;99.90
4050;DHT22;2039;50.894;6.888;2023-12-20T14:40:24;8.10;99.90
4050;DHT22;2039;50.894;6.888;2023-12-20T14:42:50;8.10;99.90
4050;DHT22;2039;50.894;6.888;2023-12-20T14:45:17;8.20;99.90
4050;DHT22;2039;50.894;6.888;2023-12-20T14:47:42;8.20;99.90
4050;DHT22;2039;50.894;6.888;2023-12-20T14:50:09;8.20;99.90
4050;DHT22;2039;50.894;6.888;2023-12-20T14:52:37;8.30;99.90
4050;DHT22;2039;50.894;6.888;2023-12-20T14:55:04;8.30;99.90
4050;DHT22;2039;50.894;6.888;2023-12-20T14:57:30;8.30;99.90
4050;DHT22;2039;50.894;6.888;2023-12-20T14:59:56;8.30;99.90
4050;DHT22;2039;50.894;6.888;2023-12-20T15:02:22;8.30;99.90
4050;DHT22;2039;50.894;6.888;2023-12-20T15:04:48;8.20;99.90
4050;DHT22;2039;50.894;6.888;2023-12-20T15:07:15;8.30;99.90
4050;DHT22;2039;50.894;6.888;2023-12-20T15:09:40;8.30;99.90
4050;DHT22;2039;50.894;6.888;2023-12-20T15:12:11;8.30;99.90
4050;DHT22;2039;50.894;6.888;2023-12-20T15:14:37;8.30;99.90
4050;DHT22;2039;50.894;6.888;2023-12-20T15:17:03;8.30;99.90
4050;DHT22;2039;50.894;6.888;2023-12-20T15:19:30;8.30;99.90
4050;DHT22;2039;50.894;6.888;2023-12-20T15:21:57;8.30;99.90
4050;DHT22;2039;50.894;6.888;2023-12-20T15:24:25;8.30;99.90
4050;DHT22;2039;50.894;6.888;2023-12-20T15:27:04;8.30;99.90
4050;DHT22;2039;50.894;6.888;2023-12-20T15:29:29;8.30;99.90
4050;DHT22;2039;50.894;6.888;2023-12-20T15:31:57;8.30;99.90
4050;DHT22;2039;50.894;6.888;2023-12-20T15:34:23;8.30;99.90
4050;DHT22;2039;50.894;6.888;2023-12-20T15:36:49;8.20;99.90
4050;DHT22;2039;50.894;6.888;2023-12-20T15:39:16;8.10;99.90
4050;DHT22;2039;50.894;6.888;2023-12-20T15:41:41;8.20;99.90
4050;DHT22;2039;50.894;6.888;2023-12-20T15:44:08;8.20;99.90
4050;DHT22;2039;50.894;6.888;2023-12-20T15:46:37;8.10;99.90
4050;DHT22;2039;50.894;6.888;2023-12-20T15:49:04;8.10;99.90
4050;DHT22;2039;50.894;6.888;2023-12-20T15:51:30;8.20;99.90
4050;DHT22;2039;50.894;6.888;2023-12-20T15:53:55;8.20;99.90
4050;DHT22;2039;50.894;6.888;2023-12-20T15:56:27;8.20;99.90
4050;DHT22;2039;50.894;6.888;2023-12-20T15:58:52;8.20;99.90
4050;DHT22;2039;50.894;6.888;2023-12-20T16:01:20;8.20;99.90
4050;DHT22;2039;50.894;6.888;2023-12-20T16:03:46;8.20;99.90
4050;DHT22;2039;50.894;6.888;2023-12-20T16:06:11;8.20;99.90
4050;DHT22;2039;50.894;6.888;2023-12-20T16:08:41;8.20;99.90
4050;DHT22;2039;50.894;6.888;2023-12-20T16:11:07;8.20;99.90
4050;DHT22;2039;50.894;6.888;2023-12-20T16:13:33;8.20;99.90